sensor_id;sensor_type;location;lat;lon;timestamp;P1;durP1;ratioP1;P2;durP2;ratioP2
22334;SDS011;11335;43.848;25.958;2023-06-22T00:01:26;14.80;;;11.20;;
22334;SDS011;11335;43.848;25.958;2023-06-22T00:04:11;16.30;;;11.00;;
22334;SDS011;11335;43.848;25.958;2023-06-22T00:06:57;13.00;;;11.55;;
22334;SDS011;11335;43.848;25.958;2023-06-22T00:09:43;21.95;;;11.23;;
22334;SDS011;11335;43.848;25.958;2023-06-22T00:12:28;21.92;;;12.50;;
22334;SDS011;11335;43.848;25.958;2023-06-22T00:15:14;15.98;;;10.98;;
22334;SDS011;11335;43.848;25.958;2023-06-22T00:18:00;13.80;;;11.02;;
22334;SDS011;11335;43.848;25.958;2023-06-22T00:20:47;12.10;;;10.70;;
22334;SDS011;11335;43.848;25.958;2023-06-22T00:23:33;11.75;;;10.45;;
22334;SDS011;11335;43.848;25.958;2023-06-22T00:26:19;18.05;;;11.73;;
22334;SDS011;11335;43.848;25.958;2023-06-22T00:29:06;15.07;;;11.40;;
22334;SDS011;11335;43.848;25.958;2023-06-22T00:31:52;13.13;;;11.20;;
22334;SDS011;11335;43.848;25.958;2023-06-22T00:34:37;13.30;;;11.10;;
22334;SDS011;11335;43.848;25.958;2023-06-22T00:37:23;15.73;;;11.43;;
22334;SDS011;11335;43.848;25.958;2023-06-22T00:40:10;13.73;;;10.52;;
22334;SDS011;11335;43.848;25.958;2023-06-22T00:42:57;14.27;;;11.20;;
22334;SDS011;11335;43.848;25.958;2023-06-22T00:45:43;14.70;;;11.68;;
22334;SDS011;11335;43.848;25.958;2023-06-22T00:48:29;13.73;;;11.45;;
22334;SDS011;11335;43.848;25.958;2023-06-22T00:51:14;16.63;;;11.70;;
22334;SDS011;11335;43.848;25.958;2023-06-22T00:54:00;17.50;;;11.93;;
22334;SDS011;11335;43.848;25.958;2023-06-22T00:56:46;14.85;;;12.63;;
22334;SDS011;11335;43.848;25.958;2023-06-22T00:59:32;16.95;;;12.63;;
22334;SDS011;11335;43.848;25.958;2023-06-22T01:02:18;17.58;;;13.30;;
22334;SDS011;11335;43.848;25.958;2023-06-22T01:05:04;23.13;;;13.10;;
22334;SDS011;11335;43.848;25.958;2023-06-22T01:11:19;19.70;;;15.05;;
22334;SDS011;11335;43.848;25.958;2023-06-22T01:17:35;21.00;;;15.10;;
22334;SDS011;11335;43.848;25.958;2023-06-22T01:20:21;22.55;;;16.92;;
22334;SDS011;11335;43.848;25.958;2023-06-22T01:23:27;18.88;;;15.00;;
22334;SDS011;11335;43.848;25.958;2023-06-22T01:29:28;19.25;;;15.73;;
22334;SDS011;11335;43.848;25.958;2023-06-22T01:32:16;17.65;;;15.70;;
22334;SDS011;11335;43.848;25.958;2023-06-22T01:35:03;19.50;;;15.38;;
22334;SDS011;11335;43.848;25.958;2023-06-22T01:37:51;17.42;;;14.40;;
22334;SDS011;11335;43.848;25.958;2023-06-22T01:40:38;21.02;;;16.20;;
22334;SDS011;11335;43.848;25.958;2023-06-22T01:43:25;20.40;;;16.35;;
22334;SDS011;11335;43.848;25.958;2023-06-22T01:46:12;22.15;;;16.88;;
22334;SDS011;11335;43.848;25.958;2023-06-22T01:48:58;23.30;;;16.92;;
22334;SDS011;11335;43.848;25.958;2023-06-22T01:51:45;25.30;;;18.38;;
22334;SDS011;11335;43.848;25.958;2023-06-22T01:54:31;22.25;;;17.65;;
22334;SDS011;11335;43.848;25.958;2023-06-22T01:57:17;23.52;;;17.08;;
22334;SDS011;11335;43.848;25.958;2023-06-22T02:00:03;22.75;;;16.40;;
22334;SDS011;11335;43.848;25.958;2023-06-22T02:02:59;22.02;;;16.42;;
22334;SDS011;11335;43.848;25.958;2023-06-22T02:05:52;21.45;;;15.25;;
22334;SDS011;11335;43.848;25.958;2023-06-22T02:08:49;22.52;;;16.00;;
22334;SDS011;11335;43.848;25.958;2023-06-22T02:11:40;21.13;;;16.10;;
22334;SDS011;11335;43.848;25.958;2023-06-22T02:14:27;26.63;;;16.25;;
22334;SDS011;11335;43.848;25.958;2023-06-22T02:17:14;23.45;;;15.75;;
22334;SDS011;11335;43.848;25.958;2023-06-22T02:20:02;21.77;;;16.25;;
22334;SDS011;11335;43.848;25.958;2023-06-22T02:22:53;17.92;;;15.20;;
22334;SDS011;11335;43.848;25.958;2023-06-22T02:25:39;18.08;;;15.10;;
22334;SDS011;11335;43.848;25.958;2023-06-22T02:28:25;18.08;;;15.27;;
22334;SDS011;11335;43.848;25.958;2023-06-22T02:31:11;21.02;;;15.48;;
22334;SDS011;11335;43.848;25.958;2023-06-22T02:33:57;24.50;;;17.13;;
22334;SDS011;11335;43.848;25.958;2023-06-22T02:36:45;18.25;;;15.73;;
22334;SDS011;11335;43.848;25.958;2023-06-22T02:39:36;20.20;;;15.90;;
22334;SDS011;11335;43.848;25.958;2023-06-22T02:42:22;22.58;;;16.45;;
22334;SDS011;11335;43.848;25.958;2023-06-22T02:45:08;21.75;;;16.48;;
22334;SDS011;11335;43.848;25.958;2023-06-22T02:47:54;17.05;;;14.77;;
22334;SDS011;11335;43.848;25.958;2023-06-22T02:50:41;18.08;;;15.20;;
22334;SDS011;11335;43.848;25.958;2023-06-22T02:53:26;20.92;;;16.40;;
22334;SDS011;11335;43.848;25.958;2023-06-22T02:56:12;23.00;;;16.50;;
22334;SDS011;11335;43.848;25.958;2023-06-22T02:58:58;24.77;;;16.98;;
22334;SDS011;11335;43.848;25.958;2023-06-22T03:01:46;20.83;;;16.40;;
22334;SDS011;11335;43.848;25.958;2023-06-22T03:04:32;22.60;;;16.60;;
22334;SDS011;11335;43.848;25.958;2023-06-22T03:07:18;21.60;;;17.42;;
22334;SDS011;11335;43.848;25.958;2023-06-22T03:10:04;23.63;;;16.73;;
22334;SDS011;11335;43.848;25.958;2023-06-22T03:12:50;25.45;;;17.02;;
22334;SDS011;11335;43.848;25.958;2023-06-22T03:15:35;26.67;;;17.73;;
22334;SDS011;11335;43.848;25.958;2023-06-22T03:18:21;20.95;;;16.17;;
22334;SDS011;11335;43.848;25.958;2023-06-22T03:21:07;23.30;;;16.40;;
22334;SDS011;11335;43.848;25.958;2023-06-22T03:23:53;19.83;;;15.73;;
22334;SDS011;11335;43.848;25.958;2023-06-22T03:26:39;25.38;;;16.33;;
22334;SDS011;11335;43.848;25.958;2023-06-22T03:29:25;29.25;;;16.85;;
22334;SDS011;11335;43.848;25.958;2023-06-22T03:32:11;24.65;;;17.33;;
22334;SDS011;11335;43.848;25.958;2023-06-22T03:34:56;23.13;;;16.13;;
22334;SDS011;11335;43.848;25.958;2023-06-22T03:37:44;20.48;;;15.50;;
22334;SDS011;11335;43.848;25.958;2023-06-22T03:40:29;20.75;;;15.25;;
22334;SDS011;11335;43.848;25.958;2023-06-22T03:43:15;23.08;;;15.63;;
22334;SDS011;11335;43.848;25.958;2023-06-22T03:46:01;25.45;;;15.93;;
22334;SDS011;11335;43.848;25.958;2023-06-22T03:48:46;25.88;;;15.32;;
22334;SDS011;11335;43.848;25.958;2023-06-22T03:51:32;21.55;;;15.07;;
22334;SDS011;11335;43.848;25.958;2023-06-22T03:54:18;22.35;;;15.90;;
22334;SDS011;11335;43.848;25.958;2023-06-22T03:57:04;26.83;;;16.60;;
22334;SDS011;11335;43.848;25.958;2023-06-22T03:59:50;29.42;;;16.02;;
22334;SDS011;11335;43.848;25.958;2023-06-22T04:02:36;20.55;;;15.10;;
22334;SDS011;11335;43.848;25.958;2023-06-22T04:05:22;23.70;;;16.05;;
22334;SDS011;11335;43.848;25.958;2023-06-22T04:08:08;23.83;;;16.70;;
22334;SDS011;11335;43.848;25.958;2023-06-22T04:10:54;24.20;;;16.85;;
22334;SDS011;11335;43.848;25.958;2023-06-22T04:13:39;23.38;;;16.38;;
22334;SDS011;11335;43.848;25.958;2023-06-22T04:16:25;23.83;;;17.10;;
22334;SDS011;11335;43.848;25.958;2023-06-22T04:19:11;26.20;;;16.27;;
22334;SDS011;11335;43.848;25.958;2023-06-22T04:22:01;17.75;;;15.15;;
22334;SDS011;11335;43.848;25.958;2023-06-22T04:24:47;22.05;;;15.02;;
22334;SDS011;11335;43.848;25.958;2023-06-22T04:27:33;22.55;;;16.25;;
22334;SDS011;11335;43.848;25.958;2023-06-22T04:30:25;24.88;;;15.63;;
22334;SDS011;11335;43.848;25.958;2023-06-22T04:33:12;20.10;;;14.77;;
22334;SDS011;11335;43.848;25.958;2023-06-22T04:35:58;18.92;;;14.43;;
22334;SDS011;11335;43.848;25.958;2023-06-22T04:38:47;20.92;;;15.38;;
22334;SDS011;11335;43.848;25.958;2023-06-22T04:41:33;23.92;;;15.80;;
22334;SDS011;11335;43.848;25.958;2023-06-22T04:44:27;19.55;;;14.75;;
22334;SDS011;11335;43.848;25.958;2023-06-22T04:47:12;22.90;;;15.68;;
22334;SDS011;11335;43.848;25.958;2023-06-22T04:49:58;20.48;;;16.60;;
22334;SDS011;11335;43.848;25.958;2023-06-22T04:52:44;20.55;;;15.70;;
22334;SDS011;11335;43.848;25.958;2023-06-22T04:55:31;19.58;;;15.38;;
22334;SDS011;11335;43.848;25.958;2023-06-22T04:58:17;18.00;;;15.07;;
22334;SDS011;11335;43.848;25.958;2023-06-22T05:01:05;24.48;;;16.05;;
22334;SDS011;11335;43.848;25.958;2023-06-22T05:03:51;21.35;;;15.32;;
22334;SDS011;11335;43.848;25.958;2023-06-22T05:06:40;20.55;;;15.75;;
22334;SDS011;11335;43.848;25.958;2023-06-22T05:09:26;26.67;;;16.75;;
22334;SDS011;11335;43.848;25.958;2023-06-22T05:12:12;24.02;;;16.25;;
22334;SDS011;11335;43.848;25.958;2023-06-22T05:14:57;20.00;;;15.70;;
22334;SDS011;11335;43.848;25.958;2023-06-22T05:17:43;23.10;;;15.57;;
22334;SDS011;11335;43.848;25.958;2023-06-22T05:20:30;23.80;;;16.35;;
22334;SDS011;11335;43.848;25.958;2023-06-22T05:23:16;20.83;;;15.05;;
22334;SDS011;11335;43.848;25.958;2023-06-22T05:26:01;19.85;;;15.05;;
22334;SDS011;11335;43.848;25.958;2023-06-22T05:28:47;23.15;;;14.40;;
22334;SDS011;11335;43.848;25.958;2023-06-22T05:31:33;15.35;;;13.13;;
22334;SDS011;11335;43.848;25.958;2023-06-22T05:34:19;20.27;;;13.90;;
22334;SDS011;11335;43.848;25.958;2023-06-22T05:37:05;15.25;;;12.60;;
22334;SDS011;11335;43.848;25.958;2023-06-22T05:39:51;17.25;;;12.10;;
22334;SDS011;11335;43.848;25.958;2023-06-22T05:42:37;14.60;;;12.32;;
22334;SDS011;11335;43.848;25.958;2023-06-22T05:45:23;18.88;;;11.63;;
22334;SDS011;11335;43.848;25.958;2023-06-22T05:48:09;17.98;;;11.15;;
22334;SDS011;11335;43.848;25.958;2023-06-22T05:50:54;15.82;;;10.25;;
22334;SDS011;11335;43.848;25.958;2023-06-22T05:53:40;13.65;;;10.13;;
22334;SDS011;11335;43.848;25.958;2023-06-22T05:56:26;12.63;;;9.85;;
22334;SDS011;11335;43.848;25.958;2023-06-22T05:59:12;17.90;;;10.55;;
22334;SDS011;11335;43.848;25.958;2023-06-22T06:01:57;12.10;;;10.80;;
22334;SDS011;11335;43.848;25.958;2023-06-22T06:04:43;11.63;;;9.88;;
22334;SDS011;11335;43.848;25.958;2023-06-22T06:07:29;14.10;;;10.88;;
22334;SDS011;11335;43.848;25.958;2023-06-22T06:10:15;15.27;;;10.73;;
22334;SDS011;11335;43.848;25.958;2023-06-22T06:13:01;18.60;;;10.65;;
22334;SDS011;11335;43.848;25.958;2023-06-22T06:15:47;14.27;;;10.10;;
22334;SDS011;11335;43.848;25.958;2023-06-22T06:18:33;11.68;;;9.93;;
22334;SDS011;11335;43.848;25.958;2023-06-22T06:21:19;20.63;;;10.70;;
22334;SDS011;11335;43.848;25.958;2023-06-22T06:24:04;18.10;;;9.38;;
22334;SDS011;11335;43.848;25.958;2023-06-22T06:26:50;18.55;;;10.07;;
22334;SDS011;11335;43.848;25.958;2023-06-22T06:29:36;12.60;;;9.23;;
22334;SDS011;11335;43.848;25.958;2023-06-22T06:32:22;14.95;;;9.40;;
22334;SDS011;11335;43.848;25.958;2023-06-22T06:35:08;16.17;;;10.00;;
22334;SDS011;11335;43.848;25.958;2023-06-22T06:37:55;22.05;;;10.80;;
22334;SDS011;11335;43.848;25.958;2023-06-22T06:40:40;12.30;;;10.32;;
22334;SDS011;11335;43.848;25.958;2023-06-22T06:43:26;12.38;;;10.18;;
22334;SDS011;11335;43.848;25.958;2023-06-22T06:46:12;13.85;;;10.50;;
22334;SDS011;11335;43.848;25.958;2023-06-22T06:48:58;19.08;;;10.57;;
22334;SDS011;11335;43.848;25.958;2023-06-22T06:51:43;20.92;;;10.63;;
22334;SDS011;11335;43.848;25.958;2023-06-22T06:54:29;12.40;;;9.90;;
22334;SDS011;11335;43.848;25.958;2023-06-22T06:57:15;13.63;;;9.38;;
22334;SDS011;11335;43.848;25.958;2023-06-22T07:00:01;11.07;;;9.95;;
22334;SDS011;11335;43.848;25.958;2023-06-22T07:02:46;10.88;;;8.70;;
22334;SDS011;11335;43.848;25.958;2023-06-22T07:05:33;16.40;;;9.65;;
22334;SDS011;11335;43.848;25.958;2023-06-22T07:08:19;14.43;;;9.13;;
22334;SDS011;11335;43.848;25.958;2023-06-22T07:11:05;18.75;;;9.45;;
22334;SDS011;11335;43.848;25.958;2023-06-22T07:13:51;13.20;;;8.70;;
22334;SDS011;11335;43.848;25.958;2023-06-22T07:16:37;12.65;;;7.90;;
22334;SDS011;11335;43.848;25.958;2023-06-22T07:19:26;14.20;;;8.82;;
22334;SDS011;11335;43.848;25.958;2023-06-22T07:22:13;16.42;;;9.23;;
22334;SDS011;11335;43.848;25.958;2023-06-22T07:24:59;10.43;;;8.60;;
22334;SDS011;11335;43.848;25.958;2023-06-22T07:27:45;12.02;;;8.93;;
22334;SDS011;11335;43.848;25.958;2023-06-22T07:30:42;9.68;;;7.75;;
22334;SDS011;11335;43.848;25.958;2023-06-22T07:33:27;9.65;;;8.00;;
22334;SDS011;11335;43.848;25.958;2023-06-22T07:36:13;8.25;;;7.00;;
22334;SDS011;11335;43.848;25.958;2023-06-22T07:38:59;9.82;;;7.30;;
22334;SDS011;11335;43.848;25.958;2023-06-22T07:41:45;8.23;;;7.35;;
22334;SDS011;11335;43.848;25.958;2023-06-22T07:44:30;8.45;;;6.80;;
22334;SDS011;11335;43.848;25.958;2023-06-22T07:47:16;8.13;;;7.38;;
22334;SDS011;11335;43.848;25.958;2023-06-22T07:50:05;9.20;;;7.60;;
22334;SDS011;11335;43.848;25.958;2023-06-22T07:52:51;8.70;;;7.53;;
22334;SDS011;11335;43.848;25.958;2023-06-22T07:55:38;15.07;;;7.60;;
22334;SDS011;11335;43.848;25.958;2023-06-22T07:58:23;12.50;;;9.80;;
22334;SDS011;11335;43.848;25.958;2023-06-22T08:01:09;10.35;;;7.13;;
22334;SDS011;11335;43.848;25.958;2023-06-22T08:03:55;8.10;;;7.28;;
22334;SDS011;11335;43.848;25.958;2023-06-22T08:06:41;8.35;;;7.32;;
22334;SDS011;11335;43.848;25.958;2023-06-22T08:09:28;13.60;;;7.10;;
22334;SDS011;11335;43.848;25.958;2023-06-22T08:12:16;10.60;;;7.78;;
22334;SDS011;11335;43.848;25.958;2023-06-22T08:15:03;38.65;;;8.63;;
22334;SDS011;11335;43.848;25.958;2023-06-22T08:17:49;11.18;;;7.57;;
22334;SDS011;11335;43.848;25.958;2023-06-22T08:20:35;17.58;;;7.75;;
22334;SDS011;11335;43.848;25.958;2023-06-22T08:23:21;11.25;;;8.25;;
22334;SDS011;11335;43.848;25.958;2023-06-22T08:26:06;8.60;;;7.70;;
22334;SDS011;11335;43.848;25.958;2023-06-22T08:28:52;14.20;;;7.47;;
22334;SDS011;11335;43.848;25.958;2023-06-22T08:31:38;11.20;;;7.75;;
22334;SDS011;11335;43.848;25.958;2023-06-22T08:34:24;9.23;;;7.63;;
22334;SDS011;11335;43.848;25.958;2023-06-22T08:37:10;8.43;;;7.50;;
22334;SDS011;11335;43.848;25.958;2023-06-22T08:39:58;10.93;;;8.10;;
22334;SDS011;11335;43.848;25.958;2023-06-22T08:42:44;25.20;;;9.35;;
22334;SDS011;11335;43.848;25.958;2023-06-22T08:45:31;8.85;;;7.60;;
22334;SDS011;11335;43.848;25.958;2023-06-22T08:48:17;11.32;;;8.25;;
22334;SDS011;11335;43.848;25.958;2023-06-22T08:51:02;12.02;;;8.70;;
22334;SDS011;11335;43.848;25.958;2023-06-22T08:53:49;11.48;;;7.88;;
22334;SDS011;11335;43.848;25.958;2023-06-22T08:56:35;12.20;;;8.70;;
22334;SDS011;11335;43.848;25.958;2023-06-22T08:59:21;15.80;;;8.38;;
22334;SDS011;11335;43.848;25.958;2023-06-22T09:02:07;23.23;;;8.93;;
22334;SDS011;11335;43.848;25.958;2023-06-22T09:04:53;10.25;;;8.20;;
22334;SDS011;11335;43.848;25.958;2023-06-22T09:07:41;11.05;;;8.65;;
22334;SDS011;11335;43.848;25.958;2023-06-22T09:10:27;11.65;;;8.43;;
22334;SDS011;11335;43.848;25.958;2023-06-22T09:13:13;11.52;;;8.18;;
22334;SDS011;11335;43.848;25.958;2023-06-22T09:15:58;8.55;;;7.60;;
22334;SDS011;11335;43.848;25.958;2023-06-22T09:18:48;10.88;;;8.10;;
22334;SDS011;11335;43.848;25.958;2023-06-22T09:21:34;10.80;;;8.02;;
22334;SDS011;11335;43.848;25.958;2023-06-22T09:24:20;10.77;;;8.27;;
22334;SDS011;11335;43.848;25.958;2023-06-22T09:27:05;10.73;;;7.82;;
22334;SDS011;11335;43.848;25.958;2023-06-22T09:29:51;9.85;;;8.40;;
22334;SDS011;11335;43.848;25.958;2023-06-22T09:32:37;9.43;;;8.43;;
22334;SDS011;11335;43.848;25.958;2023-06-22T09:35:23;22.75;;;8.45;;
22334;SDS011;11335;43.848;25.958;2023-06-22T09:38:09;10.15;;;7.75;;
22334;SDS011;11335;43.848;25.958;2023-06-22T09:40:54;8.93;;;8.00;;
22334;SDS011;11335;43.848;25.958;2023-06-22T09:43:40;12.35;;;8.50;;
22334;SDS011;11335;43.848;25.958;2023-06-22T09:46:26;12.30;;;7.90;;
22334;SDS011;11335;43.848;25.958;2023-06-22T09:49:12;8.95;;;7.70;;
22334;SDS011;11335;43.848;25.958;2023-06-22T09:51:57;11.02;;;7.75;;
22334;SDS011;11335;43.848;25.958;2023-06-22T09:54:43;10.45;;;8.07;;
22334;SDS011;11335;43.848;25.958;2023-06-22T09:57:29;10.02;;;8.15;;
22334;SDS011;11335;43.848;25.958;2023-06-22T10:00:16;9.50;;;8.57;;
22334;SDS011;11335;43.848;25.958;2023-06-22T10:03:02;9.38;;;8.05;;
22334;SDS011;11335;43.848;25.958;2023-06-22T10:05:48;10.15;;;8.32;;
22334;SDS011;11335;43.848;25.958;2023-06-22T10:08:34;8.60;;;7.70;;
22334;SDS011;11335;43.848;25.958;2023-06-22T10:11:20;8.95;;;7.85;;
22334;SDS011;11335;43.848;25.958;2023-06-22T10:14:08;12.43;;;8.52;;
22334;SDS011;11335;43.848;25.958;2023-06-22T10:16:53;12.68;;;7.65;;
22334;SDS011;11335;43.848;25.958;2023-06-22T10:19:39;10.63;;;8.40;;
22334;SDS011;11335;43.848;25.958;2023-06-22T10:22:26;9.18;;;8.20;;
22334;SDS011;11335;43.848;25.958;2023-06-22T10:25:12;8.65;;;7.53;;
22334;SDS011;11335;43.848;25.958;2023-06-22T10:27:58;9.23;;;8.30;;
22334;SDS011;11335;43.848;25.958;2023-06-22T10:30:44;8.55;;;7.68;;
22334;SDS011;11335;43.848;25.958;2023-06-22T10:33:30;9.02;;;7.72;;
22334;SDS011;11335;43.848;25.958;2023-06-22T10:36:16;11.90;;;7.97;;
22334;SDS011;11335;43.848;25.958;2023-06-22T10:39:02;8.95;;;7.57;;
22334;SDS011;11335;43.848;25.958;2023-06-22T10:41:48;10.07;;;7.72;;
22334;SDS011;11335;43.848;25.958;2023-06-22T10:44:34;8.65;;;7.75;;
22334;SDS011;11335;43.848;25.958;2023-06-22T10:47:19;9.43;;;7.35;;
22334;SDS011;11335;43.848;25.958;2023-06-22T10:50:05;8.15;;;7.35;;
22334;SDS011;11335;43.848;25.958;2023-06-22T10:52:51;8.50;;;7.60;;
22334;SDS011;11335;43.848;25.958;2023-06-22T10:55:37;8.75;;;7.65;;
22334;SDS011;11335;43.848;25.958;2023-06-22T10:58:23;13.20;;;7.95;;
22334;SDS011;11335;43.848;25.958;2023-06-22T11:01:09;10.55;;;6.85;;
22334;SDS011;11335;43.848;25.958;2023-06-22T11:03:54;13.35;;;7.63;;
22334;SDS011;11335;43.848;25.958;2023-06-22T11:06:40;8.90;;;7.50;;
22334;SDS011;11335;43.848;25.958;2023-06-22T11:09:26;9.02;;;7.00;;
22334;SDS011;11335;43.848;25.958;2023-06-22T11:12:11;10.30;;;7.10;;
22334;SDS011;11335;43.848;25.958;2023-06-22T11:15:00;9.55;;;7.30;;
22334;SDS011;11335;43.848;25.958;2023-06-22T11:17:46;13.10;;;7.53;;
22334;SDS011;11335;43.848;25.958;2023-06-22T11:20:33;13.85;;;7.50;;
22334;SDS011;11335;43.848;25.958;2023-06-22T11:23:24;11.45;;;7.10;;
22334;SDS011;11335;43.848;25.958;2023-06-22T11:26:11;14.38;;;7.47;;
22334;SDS011;11335;43.848;25.958;2023-06-22T11:28:57;9.73;;;7.55;;
22334;SDS011;11335;43.848;25.958;2023-06-22T11:31:43;10.90;;;7.35;;
22334;SDS011;11335;43.848;25.958;2023-06-22T11:34:29;10.63;;;7.25;;
22334;SDS011;11335;43.848;25.958;2023-06-22T11:37:15;9.65;;;7.80;;
22334;SDS011;11335;43.848;25.958;2023-06-22T11:40:01;8.85;;;7.40;;
22334;SDS011;11335;43.848;25.958;2023-06-22T11:42:50;9.18;;;8.00;;
22334;SDS011;11335;43.848;25.958;2023-06-22T11:45:35;9.15;;;7.97;;
22334;SDS011;11335;43.848;25.958;2023-06-22T11:48:21;8.40;;;7.55;;
22334;SDS011;11335;43.848;25.958;2023-06-22T11:51:07;9.35;;;7.60;;
22334;SDS011;11335;43.848;25.958;2023-06-22T11:53:53;39.72;;;9.45;;
22334;SDS011;11335;43.848;25.958;2023-06-22T11:56:39;8.52;;;7.72;;
22334;SDS011;11335;43.848;25.958;2023-06-22T11:59:25;9.27;;;7.95;;
22334;SDS011;11335;43.848;25.958;2023-06-22T12:05:52;9.23;;;7.40;;
22334;SDS011;11335;43.848;25.958;2023-06-22T12:08:38;9.57;;;7.50;;
22334;SDS011;11335;43.848;25.958;2023-06-22T12:11:24;8.32;;;7.53;;
22334;SDS011;11335;43.848;25.958;2023-06-22T12:14:10;29.23;;;9.27;;
22334;SDS011;11335;43.848;25.958;2023-06-22T12:16:58;9.55;;;7.38;;
22334;SDS011;11335;43.848;25.958;2023-06-22T12:19:44;8.68;;;7.40;;
22334;SDS011;11335;43.848;25.958;2023-06-22T12:22:30;14.35;;;7.93;;
22334;SDS011;11335;43.848;25.958;2023-06-22T12:25:19;8.82;;;7.38;;
22334;SDS011;11335;43.848;25.958;2023-06-22T12:28:05;15.15;;;7.95;;
22334;SDS011;11335;43.848;25.958;2023-06-22T12:30:51;8.55;;;7.53;;
22334;SDS011;11335;43.848;25.958;2023-06-22T12:33:37;16.63;;;7.85;;
22334;SDS011;11335;43.848;25.958;2023-06-22T12:36:23;11.48;;;8.00;;
22334;SDS011;11335;43.848;25.958;2023-06-22T12:39:09;8.45;;;7.65;;
22334;SDS011;11335;43.848;25.958;2023-06-22T12:41:55;10.82;;;7.70;;
22334;SDS011;11335;43.848;25.958;2023-06-22T12:44:41;11.35;;;7.50;;
22334;SDS011;11335;43.848;25.958;2023-06-22T12:47:26;11.38;;;7.50;;
22334;SDS011;11335;43.848;25.958;2023-06-22T12:50:12;14.48;;;8.15;;
22334;SDS011;11335;43.848;25.958;2023-06-22T12:52:58;8.55;;;7.25;;
22334;SDS011;11335;43.848;25.958;2023-06-22T12:55:45;10.43;;;7.65;;
22334;SDS011;11335;43.848;25.958;2023-06-22T12:58:31;11.55;;;7.85;;
22334;SDS011;11335;43.848;25.958;2023-06-22T13:01:17;9.32;;;7.90;;
22334;SDS011;11335;43.848;25.958;2023-06-22T13:04:03;9.38;;;7.95;;
22334;SDS011;11335;43.848;25.958;2023-06-22T13:06:49;12.07;;;8.27;;
22334;SDS011;11335;43.848;25.958;2023-06-22T13:09:36;10.23;;;8.00;;
22334;SDS011;11335;43.848;25.958;2023-06-22T13:12:22;11.25;;;7.75;;
22334;SDS011;11335;43.848;25.958;2023-06-22T13:15:08;17.20;;;8.57;;
22334;SDS011;11335;43.848;25.958;2023-06-22T13:17:54;9.23;;;7.68;;
22334;SDS011;11335;43.848;25.958;2023-06-22T13:20:40;13.38;;;8.02;;
22334;SDS011;11335;43.848;25.958;2023-06-22T13:23:26;21.20;;;9.07;;
22334;SDS011;11335;43.848;25.958;2023-06-22T13:26:11;12.95;;;8.60;;
22334;SDS011;11335;43.848;25.958;2023-06-22T13:28:58;20.33;;;9.00;;
22334;SDS011;11335;43.848;25.958;2023-06-22T13:31:43;10.70;;;7.55;;
22334;SDS011;11335;43.848;25.958;2023-06-22T13:34:29;10.30;;;8.35;;
22334;SDS011;11335;43.848;25.958;2023-06-22T13:37:15;10.52;;;8.23;;
22334;SDS011;11335;43.848;25.958;2023-06-22T13:40:01;13.38;;;8.05;;
22334;SDS011;11335;43.848;25.958;2023-06-22T13:42:50;9.38;;;8.48;;
22334;SDS011;11335;43.848;25.958;2023-06-22T13:45:36;8.85;;;7.95;;
22334;SDS011;11335;43.848;25.958;2023-06-22T13:48:22;9.52;;;7.75;;
22334;SDS011;11335;43.848;25.958;2023-06-22T13:51:08;12.98;;;8.77;;
22334;SDS011;11335;43.848;25.958;2023-06-22T13:53:54;9.98;;;8.35;;
22334;SDS011;11335;43.848;25.958;2023-06-22T13:56:40;11.70;;;8.25;;
22334;SDS011;11335;43.848;25.958;2023-06-22T13:59:26;10.75;;;8.10;;
22334;SDS011;11335;43.848;25.958;2023-06-22T14:02:18;9.10;;;8.05;;
22334;SDS011;11335;43.848;25.958;2023-06-22T14:05:04;26.30;;;9.43;;
22334;SDS011;11335;43.848;25.958;2023-06-22T14:07:51;11.82;;;8.50;;
22334;SDS011;11335;43.848;25.958;2023-06-22T14:10:37;9.45;;;8.45;;
22334;SDS011;11335;43.848;25.958;2023-06-22T14:13:23;11.88;;;8.05;;
22334;SDS011;11335;43.848;25.958;2023-06-22T14:16:08;10.60;;;8.57;;
22334;SDS011;11335;43.848;25.958;2023-06-22T14:18:54;10.55;;;8.73;;
22334;SDS011;11335;43.848;25.958;2023-06-22T14:21:40;13.70;;;8.70;;
22334;SDS011;11335;43.848;25.958;2023-06-22T14:24:26;12.35;;;8.70;;
22334;SDS011;11335;43.848;25.958;2023-06-22T14:27:11;10.85;;;8.65;;
22334;SDS011;11335;43.848;25.958;2023-06-22T14:29:57;13.27;;;8.75;;
22334;SDS011;11335;43.848;25.958;2023-06-22T14:32:43;12.00;;;8.52;;
22334;SDS011;11335;43.848;25.958;2023-06-22T14:35:30;16.40;;;8.32;;
22334;SDS011;11335;43.848;25.958;2023-06-22T14:38:16;14.18;;;8.48;;
22334;SDS011;11335;43.848;25.958;2023-06-22T14:41:01;16.30;;;8.65;;
22334;SDS011;11335;43.848;25.958;2023-06-22T14:43:47;12.13;;;9.00;;
22334;SDS011;11335;43.848;25.958;2023-06-22T14:46:34;16.95;;;9.02;;
22334;SDS011;11335;43.848;25.958;2023-06-22T14:49:20;12.55;;;8.40;;
22334;SDS011;11335;43.848;25.958;2023-06-22T14:52:06;9.88;;;8.82;;
22334;SDS011;11335;43.848;25.958;2023-06-22T14:54:52;12.73;;;8.77;;
22334;SDS011;11335;43.848;25.958;2023-06-22T14:57:38;14.18;;;8.68;;
22334;SDS011;11335;43.848;25.958;2023-06-22T15:00:24;10.93;;;8.63;;
22334;SDS011;11335;43.848;25.958;2023-06-22T15:03:10;11.88;;;8.13;;
22334;SDS011;11335;43.848;25.958;2023-06-22T15:06:02;13.38;;;8.48;;
22334;SDS011;11335;43.848;25.958;2023-06-22T15:08:48;11.63;;;8.75;;
22334;SDS011;11335;43.848;25.958;2023-06-22T15:11:35;12.63;;;8.75;;
22334;SDS011;11335;43.848;25.958;2023-06-22T15:14:20;11.77;;;8.27;;
22334;SDS011;11335;43.848;25.958;2023-06-22T15:17:06;10.70;;;7.72;;
22334;SDS011;11335;43.848;25.958;2023-06-22T15:19:59;10.52;;;8.32;;
22334;SDS011;11335;43.848;25.958;2023-06-22T15:22:45;9.20;;;8.25;;
22334;SDS011;11335;43.848;25.958;2023-06-22T15:25:30;10.05;;;8.95;;
22334;SDS011;11335;43.848;25.958;2023-06-22T15:28:16;14.13;;;8.43;;
22334;SDS011;11335;43.848;25.958;2023-06-22T15:31:02;13.10;;;8.50;;
22334;SDS011;11335;43.848;25.958;2023-06-22T15:33:48;12.77;;;9.10;;
22334;SDS011;11335;43.848;25.958;2023-06-22T15:36:34;17.58;;;9.35;;
22334;SDS011;11335;43.848;25.958;2023-06-22T15:39:20;12.85;;;8.23;;
22334;SDS011;11335;43.848;25.958;2023-06-22T15:42:05;11.38;;;8.23;;
22334;SDS011;11335;43.848;25.958;2023-06-22T15:44:51;28.50;;;13.45;;
22334;SDS011;11335;43.848;25.958;2023-06-22T15:47:37;16.10;;;9.00;;
22334;SDS011;11335;43.848;25.958;2023-06-22T15:50:23;10.88;;;8.07;;
22334;SDS011;11335;43.848;25.958;2023-06-22T15:53:08;13.60;;;8.70;;
22334;SDS011;11335;43.848;25.958;2023-06-22T15:55:54;9.60;;;8.23;;
22334;SDS011;11335;43.848;25.958;2023-06-22T15:58:40;14.35;;;8.57;;
22334;SDS011;11335;43.848;25.958;2023-06-22T16:01:26;15.30;;;8.80;;
22334;SDS011;11335;43.848;25.958;2023-06-22T16:04:11;9.30;;;8.00;;
22334;SDS011;11335;43.848;25.958;2023-06-22T16:06:57;10.52;;;8.30;;
22334;SDS011;11335;43.848;25.958;2023-06-22T16:09:43;8.40;;;7.60;;
22334;SDS011;11335;43.848;25.958;2023-06-22T16:12:29;9.25;;;8.30;;
22334;SDS011;11335;43.848;25.958;2023-06-22T16:15:14;9.27;;;8.38;;
22334;SDS011;11335;43.848;25.958;2023-06-22T16:18:00;8.93;;;8.02;;
22334;SDS011;11335;43.848;25.958;2023-06-22T16:20:46;9.93;;;8.20;;
22334;SDS011;11335;43.848;25.958;2023-06-22T16:23:35;11.35;;;8.18;;